createdAt,value
2022-10-05T00:01:37.190Z,8.92
2022-10-05T00:04:55.022Z,8.60
2022-10-05T00:08:25.324Z,8.76
2022-10-05T00:11:34.176Z,8.81
2022-10-05T00:14:53.855Z,8.79
2022-10-05T00:18:09.987Z,8.74
2022-10-05T00:21:39.869Z,8.67
2022-10-05T00:25:01.969Z,8.59
2022-10-05T00:28:26.010Z,8.54
2022-10-05T00:31:32.870Z,8.55
2022-10-05T00:34:48.857Z,8.51
2022-10-05T00:37:54.654Z,8.57
2022-10-05T00:41:25.107Z,8.51
2022-10-05T00:44:54.667Z,8.53
2022-10-05T00:48:38.870Z,8.46
2022-10-05T00:52:03.255Z,8.50
2022-10-05T00:55:41.855Z,8.41
2022-10-05T00:59:15.030Z,8.41
2022-10-05T01:02:36.930Z,8.41
2022-10-05T01:06:11.921Z,8.32
2022-10-05T01:09:39.971Z,8.37
2022-10-05T01:13:02.659Z,8.36
2022-10-05T01:16:26.034Z,8.25
2022-10-05T01:19:48.101Z,8.29
2022-10-05T01:23:31.876Z,8.29
2022-10-05T01:27:06.568Z,8.19
2022-10-05T01:30:24.955Z,8.31
2022-10-05T01:33:51.864Z,8.23
2022-10-05T01:37:07.452Z,8.17
2022-10-05T01:40:40.864Z,8.23
2022-10-05T01:43:54.715Z,8.17
2022-10-05T01:47:20.889Z,8.23
2022-10-05T01:50:53.951Z,8.18
2022-10-05T01:54:45.872Z,8.06
2022-10-05T01:58:16.904Z,8.11
2022-10-05T02:01:42.932Z,7.93
2022-10-05T02:05:05.873Z,8.06
2022-10-05T02:08:16.703Z,8.05
2022-10-05T02:11:31.051Z,7.99
2022-10-05T02:15:08.325Z,7.92
2022-10-05T02:18:22.892Z,7.95
2022-10-05T02:21:40.938Z,7.85
2022-10-05T02:25:01.092Z,7.89
2022-10-05T02:28:20.963Z,7.81
2022-10-05T02:31:56.010Z,7.83
2022-10-05T02:35:02.220Z,7.80
2022-10-05T02:38:32.880Z,7.76
2022-10-05T02:42:07.955Z,7.71
2022-10-05T02:45:23.020Z,7.66
2022-10-05T02:49:07.905Z,7.59
2022-10-05T02:52:24.068Z,7.67
2022-10-05T02:55:49.954Z,7.65
2022-10-05T02:59:13.882Z,7.64
2022-10-05T03:02:35.954Z,7.51
2022-10-05T03:05:51.896Z,7.64
2022-10-05T03:09:04.150Z,7.62
2022-10-05T03:12:41.892Z,7.45
2022-10-05T03:16:14.941Z,7.40
2022-10-05T03:19:45.391Z,7.49
2022-10-05T03:23:00.642Z,7.54
2022-10-05T03:26:22.148Z,7.52
2022-10-05T03:29:50.896Z,7.47
2022-10-05T03:33:21.952Z,7.46
2022-10-05T03:36:42.454Z,7.43
2022-10-05T03:40:06.007Z,7.35
2022-10-05T03:43:35.538Z,7.39
2022-10-05T03:47:09.927Z,7.37
2022-10-05T03:50:39.929Z,7.25
2022-10-05T03:53:56.758Z,7.34
2022-10-05T03:57:28.939Z,7.32
2022-10-05T04:00:40.669Z,7.08
2022-10-05T04:03:54.904Z,7.31
2022-10-05T04:07:10.957Z,7.36
2022-10-05T04:10:21.027Z,7.31
2022-10-05T04:13:43.898Z,7.36
2022-10-05T04:17:07.940Z,7.35
2022-10-05T04:20:31.842Z,7.38
2022-10-05T04:23:59.886Z,7.31
2022-10-05T04:27:15.058Z,7.36
2022-10-05T04:30:29.911Z,7.42
2022-10-05T04:33:45.147Z,7.36
2022-10-05T04:36:58.616Z,7.46
2022-10-05T04:40:47.949Z,7.22
2022-10-05T04:44:18.254Z,7.53
2022-10-05T04:47:55.922Z,7.48
2022-10-05T04:51:31.919Z,7.27
2022-10-05T04:55:12.319Z,7.38
2022-10-05T04:58:53.915Z,7.43
2022-10-05T05:02:31.928Z,7.51
2022-10-05T05:06:18.156Z,7.56
2022-10-05T05:09:56.035Z,7.54
2022-10-05T05:13:42.921Z,7.60
2022-10-05T05:17:04.243Z,7.68
2022-10-05T05:20:49.066Z,7.77
2022-10-05T06:02:38.095Z,9.66
2022-10-05T06:05:58.084Z,10.40
2022-10-05T06:09:33.952Z,10.98
2022-10-05T06:33:18.086Z,11.29
2022-10-05T06:36:52.045Z,11.47
2022-10-05T06:40:07.918Z,11.77
2022-10-05T06:43:41.227Z,11.97
2022-10-05T06:47:44.789Z,11.94
2022-10-05T07:08:25.315Z,11.06
2022-10-05T07:12:38.462Z,12.12
2022-10-05T07:25:19.515Z,12.13
2022-10-05T07:33:37.369Z,12.36
2022-10-05T07:45:38.348Z,12.87
2022-10-05T08:25:41.126Z,14.68
2022-10-05T08:29:33.371Z,15.14
2022-10-05T08:32:44.368Z,15.57
2022-10-05T08:40:35.987Z,15.82
2022-10-05T09:45:29.191Z,18.23
2022-10-05T09:49:35.196Z,18.33
2022-10-05T10:01:48.376Z,18.15
2022-10-05T10:05:09.470Z,17.55
2022-10-05T10:09:08.062Z,17.33
2022-10-05T10:13:31.224Z,17.69
2022-10-05T10:17:52.084Z,17.82
2022-10-05T10:30:51.690Z,18.18
2022-10-05T10:42:58.380Z,17.58
2022-10-05T10:47:24.048Z,17.61
2022-10-05T11:03:29.204Z,17.90
2022-10-05T11:07:49.245Z,17.17
2022-10-05T11:11:39.336Z,16.88
2022-10-05T11:15:30.208Z,17.33
2022-10-05T11:23:28.731Z,17.66
2022-10-05T11:27:17.355Z,17.68
2022-10-05T11:31:13.243Z,17.57
2022-10-05T11:34:51.199Z,17.73
2022-10-05T11:38:40.040Z,17.78
2022-10-05T11:42:03.485Z,17.60
2022-10-05T11:45:34.598Z,17.59
2022-10-05T11:49:12.784Z,17.60
2022-10-05T11:52:56.552Z,17.55
2022-10-05T12:00:31.104Z,17.92
2022-10-05T12:04:02.491Z,18.13
2022-10-05T12:08:03.078Z,18.21
2022-10-05T12:11:38.640Z,18.34
2022-10-05T12:15:05.111Z,18.59
2022-10-05T12:19:14.175Z,18.27
2022-10-05T12:22:37.048Z,18.50
2022-10-05T12:26:27.376Z,18.17
2022-10-05T12:29:53.066Z,18.14
2022-10-05T12:34:03.594Z,18.33
2022-10-05T12:38:20.936Z,18.31
2022-10-05T12:42:12.063Z,18.45
2022-10-05T12:45:42.199Z,18.68
2022-10-05T12:49:11.662Z,18.58
2022-10-05T12:52:37.131Z,18.50
2022-10-05T12:56:10.232Z,17.92
2022-10-05T12:59:39.538Z,18.27
2022-10-05T13:03:20.296Z,17.86
2022-10-05T13:07:10.330Z,18.33
2022-10-05T13:11:15.016Z,18.42
2022-10-05T13:15:00.338Z,18.30
2022-10-05T13:19:02.420Z,18.29
2022-10-05T13:22:32.037Z,18.13
2022-10-05T13:26:10.476Z,17.98
2022-10-05T13:29:54.540Z,18.03
2022-10-05T13:34:02.445Z,18.24
2022-10-05T13:38:10.197Z,18.15
2022-10-05T13:55:16.727Z,17.99
2022-10-05T13:58:52.906Z,18.03
2022-10-05T14:02:08.128Z,18.05
2022-10-05T14:05:27.143Z,17.97
2022-10-05T14:08:42.303Z,18.03
2022-10-05T14:12:18.568Z,18.07
2022-10-05T14:16:26.202Z,17.98
2022-10-05T14:23:25.974Z,17.88
2022-10-05T14:26:44.184Z,17.42
2022-10-05T14:30:06.412Z,18.02
2022-10-05T14:33:38.080Z,17.74
2022-10-05T14:37:03.124Z,17.96
2022-10-05T14:40:58.240Z,17.95
2022-10-05T14:44:28.054Z,17.88
2022-10-05T14:48:21.095Z,17.84
2022-10-05T14:51:33.171Z,17.82
2022-10-05T14:54:59.032Z,17.74
2022-10-05T14:58:44.218Z,17.56
2022-10-05T15:02:02.149Z,17.55
2022-10-05T15:05:29.076Z,17.41
2022-10-05T15:08:59.153Z,17.43
2022-10-05T15:12:03.623Z,17.40
2022-10-05T15:15:37.086Z,17.40
2022-10-05T15:19:04.139Z,17.34
2022-10-05T15:22:33.224Z,17.26
2022-10-05T15:26:49.392Z,17.14
2022-10-05T15:30:49.248Z,17.16
2022-10-05T15:34:20.916Z,17.07
2022-10-05T15:37:49.248Z,16.97
2022-10-05T15:41:31.445Z,16.96
2022-10-05T15:45:36.163Z,16.88
2022-10-05T15:49:09.772Z,16.75
2022-10-05T15:52:34.176Z,16.76
2022-10-05T15:55:50.247Z,16.70
2022-10-05T15:59:23.113Z,16.52
2022-10-05T16:02:47.210Z,16.52
2022-10-05T16:06:10.299Z,16.45
2022-10-05T16:09:53.127Z,16.40
2022-10-05T16:13:37.604Z,16.32
2022-10-05T16:17:25.892Z,16.32
2022-10-05T16:21:18.146Z,16.10
2022-10-05T16:24:52.176Z,16.16
2022-10-05T16:28:13.763Z,16.11
2022-10-05T16:31:47.901Z,16.00
2022-10-05T16:35:38.144Z,15.90
2022-10-05T16:39:14.286Z,15.80
2022-10-05T16:42:55.144Z,15.68
2022-10-05T16:46:55.314Z,15.79
2022-10-05T16:50:43.582Z,15.69
2022-10-05T16:54:38.290Z,15.56
2022-10-05T16:59:05.169Z,15.47
2022-10-05T17:03:16.271Z,15.33
2022-10-05T17:07:25.216Z,15.32
2022-10-05T17:11:08.013Z,15.17
2022-10-05T17:14:44.156Z,15.00
2022-10-05T17:18:03.108Z,15.10
2022-10-05T17:21:24.163Z,15.16
2022-10-05T17:25:23.530Z,15.10
2022-10-05T17:29:48.150Z,15.07
2022-10-05T17:33:23.494Z,15.00
2022-10-05T17:37:21.155Z,14.92
2022-10-05T17:41:27.464Z,14.63
2022-10-05T17:53:34.567Z,14.69
2022-10-05T17:57:18.463Z,14.62
2022-10-05T18:00:46.244Z,13.65
2022-10-05T18:04:35.982Z,14.55
2022-10-05T18:08:30.245Z,14.46
2022-10-05T18:11:50.243Z,14.34
2022-10-05T18:15:08.246Z,13.86
2022-10-05T18:18:33.342Z,14.27
2022-10-05T18:22:15.213Z,14.28
2022-10-05T18:25:28.725Z,14.24
2022-10-05T18:29:16.248Z,14.22
2022-10-05T18:32:40.216Z,13.82
2022-10-05T18:36:25.181Z,13.46
2022-10-05T18:39:53.947Z,14.00
2022-10-05T18:43:42.440Z,14.02
2022-10-05T18:47:11.825Z,13.45
2022-10-05T18:50:37.174Z,13.91
2022-10-05T18:53:51.224Z,13.72
2022-10-05T18:57:24.794Z,13.59
2022-10-05T19:00:55.181Z,13.65
2022-10-05T19:04:20.247Z,13.70
2022-10-05T19:08:04.209Z,13.63
2022-10-05T19:11:38.212Z,13.61
2022-10-05T19:15:03.434Z,13.55
2022-10-05T19:18:45.395Z,13.36
2022-10-05T19:22:03.792Z,13.31
2022-10-05T19:25:40.173Z,13.24
2022-10-05T19:29:36.228Z,13.19
2022-10-05T19:33:24.279Z,13.05
2022-10-05T19:37:12.296Z,12.73
2022-10-05T19:41:26.194Z,12.78
2022-10-05T19:44:52.528Z,12.69
2022-10-05T19:48:37.409Z,12.69
2022-10-05T19:52:19.248Z,12.56
2022-10-05T19:55:50.178Z,12.52
2022-10-05T19:59:44.884Z,12.66
2022-10-05T20:03:26.213Z,12.63
2022-10-05T20:06:48.336Z,12.76
2022-10-05T20:09:59.941Z,12.83
2022-10-05T20:13:33.182Z,12.78
2022-10-05T20:20:29.097Z,12.51
2022-10-05T20:23:44.228Z,12.36
2022-10-05T20:26:50.251Z,12.27
2022-10-05T20:30:05.572Z,12.35
2022-10-05T20:33:14.276Z,12.38
2022-10-05T20:36:25.076Z,12.30
2022-10-05T20:39:39.186Z,12.17
2022-10-05T20:42:41.542Z,12.10
2022-10-05T20:45:56.228Z,12.08
2022-10-05T20:48:58.868Z,12.07
2022-10-05T20:52:15.273Z,12.05
2022-10-05T20:55:50.215Z,12.07
2022-10-05T20:59:32.748Z,12.04
2022-10-05T21:03:27.223Z,11.87
2022-10-05T21:07:04.463Z,11.80
2022-10-05T21:10:19.244Z,11.72
2022-10-05T21:13:30.097Z,11.76
2022-10-05T21:17:24.487Z,11.65
2022-10-05T21:21:15.315Z,11.66
2022-10-05T21:25:03.284Z,11.57
2022-10-05T21:28:18.275Z,11.45
2022-10-05T21:31:28.449Z,11.52
2022-10-05T21:34:37.578Z,11.34
2022-10-05T21:38:29.737Z,11.41
2022-10-05T21:42:24.270Z,11.34
2022-10-05T21:45:33.108Z,11.33
2022-10-05T21:48:44.519Z,11.31
2022-10-05T21:51:53.138Z,11.29
2022-10-05T21:55:21.255Z,11.20
2022-10-05T21:58:51.296Z,11.20
2022-10-05T22:02:26.299Z,11.27
2022-10-05T22:06:27.519Z,11.28
2022-10-05T22:10:15.979Z,11.26
2022-10-05T22:14:04.362Z,11.44
2022-10-05T22:17:23.275Z,11.48
2022-10-05T22:20:27.442Z,11.54
2022-10-05T22:24:04.299Z,11.42
2022-10-05T22:27:20.238Z,11.38
2022-10-05T22:30:22.146Z,11.41
2022-10-05T22:33:37.275Z,11.26
2022-10-05T22:36:45.902Z,11.30
2022-10-05T22:39:54.238Z,11.19
2022-10-05T22:43:02.818Z,11.16
2022-10-05T22:46:19.398Z,11.01
2022-10-05T22:49:28.227Z,11.12
2022-10-05T22:52:36.815Z,11.11
2022-10-05T22:56:11.239Z,11.12
2022-10-05T22:59:46.256Z,11.07
2022-10-05T23:03:22.231Z,11.04
2022-10-05T23:06:58.523Z,11.11
2022-10-05T23:10:07.319Z,11.23
2022-10-05T23:13:35.707Z,11.27
2022-10-05T23:17:10.601Z,11.41
2022-10-05T23:20:39.242Z,11.46
2022-10-05T23:24:14.251Z,11.46
2022-10-05T23:27:49.261Z,11.53
2022-10-05T23:31:10.764Z,11.52
2022-10-05T23:34:25.307Z,11.56
2022-10-05T23:37:37.423Z,11.51
2022-10-05T23:40:46.519Z,11.37
2022-10-05T23:44:38.256Z,11.34
2022-10-05T23:48:22.278Z,11.25
2022-10-05T23:51:50.325Z,11.29
2022-10-05T23:54:58.845Z,11.47
2022-10-05T23:58:14.260Z,11.21
